sensor_id;sensor_type;location;lat;lon;timestamp;pressure;altitude;pressure_sealevel;temperature;humidity
60345;BME280;46188;52.324;8.032;2023-06-14T00:01:49;100457.72;;;16.36;51.43
60345;BME280;46188;52.324;8.032;2023-06-14T00:04:14;100460.41;;;16.36;51.49
60345;BME280;46188;52.324;8.032;2023-06-14T00:06:44;100464.03;;;16.29;51.62
60345;BME280;46188;52.324;8.032;2023-06-14T00:09:13;100463.13;;;16.30;51.73
60345;BME280;46188;52.324;8.032;2023-06-14T00:11:40;100462.16;;;16.37;51.85
60345;BME280;46188;52.324;8.032;2023-06-14T00:14:05;100461.28;;;16.33;51.78
60345;BME280;46188;52.324;8.032;2023-06-14T00:16:31;100469.38;;;16.29;52.07
60345;BME280;46188;52.324;8.032;2023-06-14T00:18:57;100462.44;;;16.15;52.63
60345;BME280;46188;52.324;8.032;2023-06-14T00:21:23;100464.22;;;16.12;52.67
60345;BME280;46188;52.324;8.032;2023-06-14T00:23:48;100467.72;;;16.17;52.74
60345;BME280;46188;52.324;8.032;2023-06-14T00:26:13;100467.69;;;16.18;52.65
60345;BME280;46188;52.324;8.032;2023-06-14T00:28:39;100473.06;;;16.15;52.72
60345;BME280;46188;52.324;8.032;2023-06-14T00:31:05;100471.34;;;16.11;52.95
60345;BME280;46188;52.324;8.032;2023-06-14T00:33:31;100474.94;;;16.07;53.26
60345;BME280;46188;52.324;8.032;2023-06-14T00:35:56;100471.41;;;16.03;53.59
60345;BME280;46188;52.324;8.032;2023-06-14T00:38:21;100479.31;;;16.11;53.42
60345;BME280;46188;52.324;8.032;2023-06-14T00:40:46;100476.75;;;16.02;53.53
60345;BME280;46188;52.324;8.032;2023-06-14T00:43:12;100478.63;;;15.94;54.02
60345;BME280;46188;52.324;8.032;2023-06-14T00:45:38;100480.44;;;15.90;54.47
60345;BME280;46188;52.324;8.032;2023-06-14T00:48:04;100473.44;;;15.81;54.73
60345;BME280;46188;52.324;8.032;2023-06-14T00:50:31;100481.44;;;15.77;54.88
60345;BME280;46188;52.324;8.032;2023-06-14T00:52:58;100481.44;;;15.74;55.30
60345;BME280;46188;52.324;8.032;2023-06-14T00:55:24;100480.56;;;15.79;55.02
60345;BME280;46188;52.324;8.032;2023-06-14T00:57:50;100483.16;;;15.84;55.05
60345;BME280;46188;52.324;8.032;2023-06-14T01:00:16;100487.66;;;15.79;55.25
60345;BME280;46188;52.324;8.032;2023-06-14T01:02:41;100485.03;;;15.76;55.59
60345;BME280;46188;52.324;8.032;2023-06-14T01:05:08;100493.00;;;15.71;55.68
60345;BME280;46188;52.324;8.032;2023-06-14T01:13:34;100495.84;;;15.51;56.71
60345;BME280;46188;52.324;8.032;2023-06-14T01:16:01;100492.22;;;15.60;56.53
60345;BME280;46188;52.324;8.032;2023-06-14T01:18:28;100489.59;;;15.57;56.57
60345;BME280;46188;52.324;8.032;2023-06-14T01:20:54;100497.63;;;15.49;57.50
60345;BME280;46188;52.324;8.032;2023-06-14T01:23:21;100498.63;;;15.36;57.55
60345;BME280;46188;52.324;8.032;2023-06-14T01:25:48;100509.31;;;15.31;57.74
60345;BME280;46188;52.324;8.032;2023-06-14T01:28:18;100504.03;;;15.25;58.13
60345;BME280;46188;52.324;8.032;2023-06-14T01:30:47;100500.56;;;15.13;58.43
60345;BME280;46188;52.324;8.032;2023-06-14T01:33:19;100513.00;;;15.08;59.03
60345;BME280;46188;52.324;8.032;2023-06-14T01:35:47;100498.84;;;15.09;58.74
60345;BME280;46188;52.324;8.032;2023-06-14T01:38:14;100501.53;;;15.03;59.10
60345;BME280;46188;52.324;8.032;2023-06-14T01:40:40;100507.75;;;14.98;59.31
60345;BME280;46188;52.324;8.032;2023-06-14T01:43:07;100510.38;;;15.04;59.29
60345;BME280;46188;52.324;8.032;2023-06-14T01:45:34;100502.47;;;14.96;59.81
60345;BME280;46188;52.324;8.032;2023-06-14T01:48:01;100514.00;;;14.90;60.09
60345;BME280;46188;52.324;8.032;2023-06-14T01:50:30;100514.94;;;14.86;60.62
60345;BME280;46188;52.324;8.032;2023-06-14T01:52:56;100515.81;;;14.85;60.44
60345;BME280;46188;52.324;8.032;2023-06-14T01:55:21;100522.91;;;14.80;60.76
60345;BME280;46188;52.324;8.032;2023-06-14T01:57:47;100519.41;;;14.75;61.04
60345;BME280;46188;52.324;8.032;2023-06-14T02:00:13;100516.78;;;14.66;61.49
60345;BME280;46188;52.324;8.032;2023-06-14T02:02:39;100514.16;;;14.61;62.07
60345;BME280;46188;52.324;8.032;2023-06-14T02:05:05;100512.38;;;14.57;62.17
60345;BME280;46188;52.324;8.032;2023-06-14T02:07:30;100515.06;;;14.51;62.56
60345;BME280;46188;52.324;8.032;2023-06-14T02:09:55;100511.53;;;14.46;62.90
60345;BME280;46188;52.324;8.032;2023-06-14T02:12:21;100517.78;;;14.38;63.10
60345;BME280;46188;52.324;8.032;2023-06-14T02:14:46;100515.06;;;14.48;63.21
60345;BME280;46188;52.324;8.032;2023-06-14T02:17:11;100521.31;;;14.37;63.91
60345;BME280;46188;52.324;8.032;2023-06-14T02:19:36;100521.31;;;14.31;63.55
60345;BME280;46188;52.324;8.032;2023-06-14T02:22:02;100525.75;;;14.26;64.13
60345;BME280;46188;52.324;8.032;2023-06-14T02:24:27;100524.88;;;14.23;64.54
60345;BME280;46188;52.324;8.032;2023-06-14T02:26:52;100519.59;;;14.16;65.18
60345;BME280;46188;52.324;8.032;2023-06-14T02:29:17;100523.16;;;14.09;65.38
60345;BME280;46188;52.324;8.032;2023-06-14T02:31:43;100523.16;;;14.09;65.62
60345;BME280;46188;52.324;8.032;2023-06-14T02:34:08;100526.69;;;14.13;65.61
60345;BME280;46188;52.324;8.032;2023-06-14T02:36:34;100529.34;;;14.10;65.76
60345;BME280;46188;52.324;8.032;2023-06-14T02:38:59;100524.03;;;14.16;65.80
60345;BME280;46188;52.324;8.032;2023-06-14T02:41:25;100529.31;;;14.17;65.90
60345;BME280;46188;52.324;8.032;2023-06-14T02:43:51;100528.44;;;14.18;65.83
60345;BME280;46188;52.324;8.032;2023-06-14T02:46:16;100524.94;;;14.07;66.82
60345;BME280;46188;52.324;8.032;2023-06-14T02:48:41;100522.28;;;14.12;66.56
60345;BME280;46188;52.324;8.032;2023-06-14T02:51:07;100532.91;;;14.04;66.98
60345;BME280;46188;52.324;8.032;2023-06-14T02:53:33;100529.34;;;14.07;67.19
60345;BME280;46188;52.324;8.032;2023-06-14T02:55:59;100533.75;;;14.11;66.91
60345;BME280;46188;52.324;8.032;2023-06-14T02:58:24;100529.38;;;14.03;67.50
60345;BME280;46188;52.324;8.032;2023-06-14T03:00:50;100539.94;;;14.10;67.57
60345;BME280;46188;52.324;8.032;2023-06-14T03:03:17;100532.91;;;13.99;67.75
60345;BME280;46188;52.324;8.032;2023-06-14T03:05:44;100543.50;;;13.95;68.42
60345;BME280;46188;52.324;8.032;2023-06-14T03:08:15;100538.19;;;14.06;68.12
60345;BME280;46188;52.324;8.032;2023-06-14T03:10:42;100539.97;;;14.03;68.48
60345;BME280;46188;52.324;8.032;2023-06-14T03:13:08;100547.94;;;13.99;68.64
60345;BME280;46188;52.324;8.032;2023-06-14T03:15:33;100555.00;;;13.94;68.78
60345;BME280;46188;52.324;8.032;2023-06-14T03:17:59;100556.75;;;14.12;68.81
60345;BME280;46188;52.324;8.032;2023-06-14T03:20:26;100554.97;;;14.14;68.36
60345;BME280;46188;52.324;8.032;2023-06-14T03:22:54;100561.16;;;14.11;68.67
60345;BME280;46188;52.324;8.032;2023-06-14T03:25:19;100554.97;;;14.09;68.77
60345;BME280;46188;52.324;8.032;2023-06-14T03:27:46;100554.09;;;14.04;69.14
60345;BME280;46188;52.324;8.032;2023-06-14T03:30:12;100554.97;;;14.08;69.39
60345;BME280;46188;52.324;8.032;2023-06-14T03:32:37;100567.34;;;14.06;69.34
60345;BME280;46188;52.324;8.032;2023-06-14T03:35:03;100571.75;;;14.07;69.22
60345;BME280;46188;52.324;8.032;2023-06-14T03:37:28;100575.31;;;14.09;69.69
60345;BME280;46188;52.324;8.032;2023-06-14T03:39:53;100569.09;;;14.19;69.72
60345;BME280;46188;52.324;8.032;2023-06-14T03:42:19;100574.41;;;14.16;69.56
60345;BME280;46188;52.324;8.032;2023-06-14T03:44:44;100573.53;;;14.15;69.62
60345;BME280;46188;52.324;8.032;2023-06-14T03:47:09;100578.81;;;14.08;69.87
60345;BME280;46188;52.324;8.032;2023-06-14T03:49:35;100584.13;;;14.11;69.88
60345;BME280;46188;52.324;8.032;2023-06-14T03:52:00;100583.25;;;14.13;70.22
60345;BME280;46188;52.324;8.032;2023-06-14T03:54:25;100589.44;;;14.06;70.43
60345;BME280;46188;52.324;8.032;2023-06-14T03:56:52;100586.78;;;14.01;70.87
60345;BME280;46188;52.324;8.032;2023-06-14T03:59:17;100586.78;;;14.01;71.16
60345;BME280;46188;52.324;8.032;2023-06-14T04:01:42;100586.81;;;13.97;71.48
60345;BME280;46188;52.324;8.032;2023-06-14T04:04:09;100586.78;;;14.00;71.37
60345;BME280;46188;52.324;8.032;2023-06-14T04:06:35;100589.44;;;14.05;71.48
60345;BME280;46188;52.324;8.032;2023-06-14T04:09:00;100593.88;;;14.12;71.65
60345;BME280;46188;52.324;8.032;2023-06-14T04:11:26;100593.81;;;14.16;71.57
60345;BME280;46188;52.324;8.032;2023-06-14T04:13:52;100598.28;;;14.05;72.15
60345;BME280;46188;52.324;8.032;2023-06-14T04:16:19;100601.81;;;14.06;72.01
60345;BME280;46188;52.324;8.032;2023-06-14T04:18:44;100604.44;;;14.18;71.95
60345;BME280;46188;52.324;8.032;2023-06-14T04:21:11;100606.22;;;14.22;71.83
60345;BME280;46188;52.324;8.032;2023-06-14T04:23:36;100610.59;;;14.21;71.67
60345;BME280;46188;52.324;8.032;2023-06-14T04:26:03;100623.88;;;14.25;72.36
60345;BME280;46188;52.324;8.032;2023-06-14T04:28:28;100617.69;;;14.23;72.35
60345;BME280;46188;52.324;8.032;2023-06-14T04:30:54;100623.03;;;14.09;73.33
60345;BME280;46188;52.324;8.032;2023-06-14T04:33:19;100621.25;;;14.15;73.39
60345;BME280;46188;52.324;8.032;2023-06-14T04:35:44;100625.66;;;14.23;73.51
60345;BME280;46188;52.324;8.032;2023-06-14T04:38:12;100627.41;;;14.22;74.08
60345;BME280;46188;52.324;8.032;2023-06-14T04:40:37;100630.97;;;14.12;74.67
60345;BME280;46188;52.324;8.032;2023-06-14T04:43:08;100631.81;;;14.31;74.34
60345;BME280;46188;52.324;8.032;2023-06-14T04:45:33;100633.59;;;14.35;73.91
60345;BME280;46188;52.324;8.032;2023-06-14T04:47:59;100636.22;;;14.43;73.92
60345;BME280;46188;52.324;8.032;2023-06-14T04:50:25;100639.78;;;14.43;73.70
60345;BME280;46188;52.324;8.032;2023-06-14T04:52:50;100644.16;;;14.41;74.39
60345;BME280;46188;52.324;8.032;2023-06-14T04:55:16;100640.66;;;14.40;74.93
60345;BME280;46188;52.324;8.032;2023-06-14T04:57:42;100637.94;;;14.56;74.23
60345;BME280;46188;52.324;8.032;2023-06-14T05:00:08;100646.78;;;14.70;73.66
60345;BME280;46188;52.324;8.032;2023-06-14T05:02:34;100640.59;;;14.73;73.03
60345;BME280;46188;52.324;8.032;2023-06-14T05:05:00;100641.47;;;14.80;72.72
60345;BME280;46188;52.324;8.032;2023-06-14T05:07:26;100633.47;;;14.86;72.81
60345;BME280;46188;52.324;8.032;2023-06-14T05:09:52;100631.69;;;14.88;72.84
60345;BME280;46188;52.324;8.032;2023-06-14T05:12:17;100634.31;;;14.94;72.64
60345;BME280;46188;52.324;8.032;2023-06-14T05:14:44;100642.25;;;15.00;72.42
60345;BME280;46188;52.324;8.032;2023-06-14T05:17:10;100634.25;;;15.11;71.70
60345;BME280;46188;52.324;8.032;2023-06-14T05:19:35;100634.19;;;15.19;71.33
60345;BME280;46188;52.324;8.032;2023-06-14T05:22:00;100640.34;;;15.27;70.97
60345;BME280;46188;52.324;8.032;2023-06-14T05:24:28;100641.16;;;15.38;70.64
60345;BME280;46188;52.324;8.032;2023-06-14T05:26:55;100643.78;;;15.44;70.39
60345;BME280;46188;52.324;8.032;2023-06-14T05:29:20;100645.50;;;15.52;70.25
60345;BME280;46188;52.324;8.032;2023-06-14T05:31:45;100645.41;;;15.64;69.66
60345;BME280;46188;52.324;8.032;2023-06-14T05:34:11;100646.31;;;15.66;69.73
60345;BME280;46188;52.324;8.032;2023-06-14T05:36:36;100648.03;;;15.78;69.51
60345;BME280;46188;52.324;8.032;2023-06-14T05:39:02;100650.59;;;15.87;69.34
60345;BME280;46188;52.324;8.032;2023-06-14T05:41:28;100650.63;;;15.84;69.22
60345;BME280;46188;52.324;8.032;2023-06-14T05:43:55;100662.97;;;15.93;68.73
60345;BME280;46188;52.324;8.032;2023-06-14T05:46:21;100667.34;;;16.00;67.92
60345;BME280;46188;52.324;8.032;2023-06-14T05:48:49;100674.44;;;15.99;67.81
60345;BME280;46188;52.324;8.032;2023-06-14T05:51:15;100677.06;;;16.02;67.19
60345;BME280;46188;52.324;8.032;2023-06-14T05:53:44;100667.25;;;16.12;67.02
60345;BME280;46188;52.324;8.032;2023-06-14T05:56:09;100671.59;;;16.19;66.89
60345;BME280;46188;52.324;8.032;2023-06-14T05:58:34;100674.22;;;16.24;67.00
60345;BME280;46188;52.324;8.032;2023-06-14T06:00:59;100675.06;;;16.31;66.96
60345;BME280;46188;52.324;8.032;2023-06-14T06:03:26;100674.06;;;16.39;66.66
60345;BME280;46188;52.324;8.032;2023-06-14T06:05:54;100671.31;;;16.50;65.82
60345;BME280;46188;52.324;8.032;2023-06-14T06:08:19;100673.88;;;16.59;65.61
60345;BME280;46188;52.324;8.032;2023-06-14T06:10:45;100674.69;;;16.65;65.94
60345;BME280;46188;52.324;8.032;2023-06-14T06:13:10;100683.59;;;16.65;65.47
60345;BME280;46188;52.324;8.032;2023-06-14T06:15:35;100683.47;;;16.73;64.85
60345;BME280;46188;52.324;8.032;2023-06-14T06:18:01;100686.94;;;16.81;64.41
60345;BME280;46188;52.324;8.032;2023-06-14T06:20:26;100683.28;;;16.93;63.98
60345;BME280;46188;52.324;8.032;2023-06-14T06:22:53;100687.72;;;16.94;64.39
60345;BME280;46188;52.324;8.032;2023-06-14T06:25:18;100683.09;;;17.10;63.82
60345;BME280;46188;52.324;8.032;2023-06-14T06:27:44;100681.22;;;17.20;63.32
60345;BME280;46188;52.324;8.032;2023-06-14T06:30:10;100689.03;;;17.32;63.11
60345;BME280;46188;52.324;8.032;2023-06-14T06:32:35;100678.34;;;17.33;62.98
60345;BME280;46188;52.324;8.032;2023-06-14T06:35:00;100685.28;;;17.45;63.11
60345;BME280;46188;52.324;8.032;2023-06-14T06:37:26;100683.50;;;17.46;63.23
60345;BME280;46188;52.324;8.032;2023-06-14T06:39:51;100690.53;;;17.53;63.45
60345;BME280;46188;52.324;8.032;2023-06-14T06:42:16;100683.25;;;17.66;62.77
60345;BME280;46188;52.324;8.032;2023-06-14T06:44:42;100691.00;;;17.81;62.09
60345;BME280;46188;52.324;8.032;2023-06-14T06:47:07;100685.75;;;17.74;61.44
60345;BME280;46188;52.324;8.032;2023-06-14T06:49:32;100686.50;;;17.83;61.34
60345;BME280;46188;52.324;8.032;2023-06-14T06:52:04;100692.66;;;17.90;61.25
60345;BME280;46188;52.324;8.032;2023-06-14T06:54:29;100686.47;;;17.86;60.61
60345;BME280;46188;52.324;8.032;2023-06-14T06:56:55;100696.75;;;18.13;60.63
60345;BME280;46188;52.324;8.032;2023-06-14T06:59:21;100695.63;;;18.28;60.47
60345;BME280;46188;52.324;8.032;2023-06-14T07:01:46;100697.22;;;18.36;59.90
60345;BME280;46188;52.324;8.032;2023-06-14T07:04:12;100700.50;;;18.54;59.43
60345;BME280;46188;52.324;8.032;2023-06-14T07:06:37;100700.38;;;18.58;59.24
60345;BME280;46188;52.324;8.032;2023-06-14T07:09:03;100699.34;;;18.69;59.45
60345;BME280;46188;52.324;8.032;2023-06-14T07:11:30;100706.41;;;18.70;59.24
60345;BME280;46188;52.324;8.032;2023-06-14T07:13:55;100707.16;;;18.78;57.87
60345;BME280;46188;52.324;8.032;2023-06-14T07:16:20;100707.03;;;18.86;56.04
60345;BME280;46188;52.324;8.032;2023-06-14T07:18:45;100710.44;;;18.94;56.31
60345;BME280;46188;52.324;8.032;2023-06-14T07:21:11;100705.56;;;19.14;54.96
60345;BME280;46188;52.324;8.032;2023-06-14T07:23:36;100711.00;;;19.10;55.05
60345;BME280;46188;52.324;8.032;2023-06-14T07:26:01;100713.66;;;19.10;54.92
60345;BME280;46188;52.324;8.032;2023-06-14T07:28:26;100709.72;;;19.29;54.73
60345;BME280;46188;52.324;8.032;2023-06-14T07:30:52;100707.75;;;19.38;54.16
60345;BME280;46188;52.324;8.032;2023-06-14T07:33:17;100712.75;;;19.54;53.38
60345;BME280;46188;52.324;8.032;2023-06-14T07:35:42;100707.25;;;19.61;53.19
60345;BME280;46188;52.324;8.032;2023-06-14T07:38:07;100708.16;;;19.61;52.66
60345;BME280;46188;52.324;8.032;2023-06-14T07:40:33;100719.63;;;19.66;52.60
60345;BME280;46188;52.324;8.032;2023-06-14T07:42:58;100714.13;;;19.71;52.20
60345;BME280;46188;52.324;8.032;2023-06-14T07:45:23;100709.78;;;19.67;50.93
60345;BME280;46188;52.324;8.032;2023-06-14T07:47:49;100720.03;;;19.88;51.25
60345;BME280;46188;52.324;8.032;2023-06-14T07:50:15;100711.44;;;20.12;50.97
60345;BME280;46188;52.324;8.032;2023-06-14T07:52:40;100712.09;;;20.21;49.95
60345;BME280;46188;52.324;8.032;2023-06-14T07:55:06;100713.78;;;20.24;49.46
60345;BME280;46188;52.324;8.032;2023-06-14T07:57:31;100704.44;;;20.40;49.45
60345;BME280;46188;52.324;8.032;2023-06-14T07:59:56;100714.88;;;20.53;49.55
60345;BME280;46188;52.324;8.032;2023-06-14T08:02:21;100712.91;;;20.59;49.50
60345;BME280;46188;52.324;8.032;2023-06-14T08:04:47;100715.72;;;20.53;49.02
60345;BME280;46188;52.324;8.032;2023-06-14T08:07:13;100731.72;;;20.56;49.16
60345;BME280;46188;52.324;8.032;2023-06-14T08:09:38;100727.19;;;20.58;48.74
60345;BME280;46188;52.324;8.032;2023-06-14T08:12:05;100715.09;;;20.78;48.72
60345;BME280;46188;52.324;8.032;2023-06-14T08:14:33;100717.88;;;20.75;48.42
60345;BME280;46188;52.324;8.032;2023-06-14T08:16:58;100720.25;;;20.86;47.50
60345;BME280;46188;52.324;8.032;2023-06-14T08:19:23;100733.22;;;21.01;47.61
60345;BME280;46188;52.324;8.032;2023-06-14T08:21:49;100718.28;;;20.92;46.07
60345;BME280;46188;52.324;8.032;2023-06-14T08:24:15;100712.84;;;20.61;45.22
60345;BME280;46188;52.324;8.032;2023-06-14T08:26:41;100726.22;;;20.64;46.11
60345;BME280;46188;52.324;8.032;2023-06-14T08:29:06;100724.53;;;20.93;45.13
60345;BME280;46188;52.324;8.032;2023-06-14T08:31:34;100734.53;;;20.86;45.09
60345;BME280;46188;52.324;8.032;2023-06-14T08:34:00;100732.41;;;20.99;45.30
60345;BME280;46188;52.324;8.032;2023-06-14T08:36:25;100731.38;;;21.03;45.02
60345;BME280;46188;52.324;8.032;2023-06-14T08:38:50;100731.50;;;20.98;44.46
60345;BME280;46188;52.324;8.032;2023-06-14T08:41:22;100728.91;;;20.97;44.53
60345;BME280;46188;52.324;8.032;2023-06-14T08:43:52;100726.22;;;20.97;44.98
60345;BME280;46188;52.324;8.032;2023-06-14T08:46:18;100734.78;;;21.39;45.29
60345;BME280;46188;52.324;8.032;2023-06-14T08:48:46;100725.53;;;21.51;45.24
60345;BME280;46188;52.324;8.032;2023-06-14T08:51:13;100723.03;;;21.75;44.74
60345;BME280;46188;52.324;8.032;2023-06-14T08:53:42;100724.81;;;21.74;43.76
60345;BME280;46188;52.324;8.032;2023-06-14T08:56:08;100723.63;;;21.56;43.84
60345;BME280;46188;52.324;8.032;2023-06-14T08:58:44;100729.81;;;21.59;43.79
60345;BME280;46188;52.324;8.032;2023-06-14T09:01:13;100724.88;;;21.73;43.66
60345;BME280;46188;52.324;8.032;2023-06-14T09:03:40;100730.72;;;21.86;42.79
60345;BME280;46188;52.324;8.032;2023-06-14T09:06:07;100732.78;;;21.78;42.38
60345;BME280;46188;52.324;8.032;2023-06-14T09:08:34;100737.97;;;21.84;43.07
60345;BME280;46188;52.324;8.032;2023-06-14T09:11:01;100727.66;;;21.98;42.88
60345;BME280;46188;52.324;8.032;2023-06-14T09:13:26;100742.75;;;22.02;42.96
60345;BME280;46188;52.324;8.032;2023-06-14T09:15:52;100743.72;;;22.28;42.40
60345;BME280;46188;52.324;8.032;2023-06-14T09:18:18;100745.22;;;22.08;42.16
60345;BME280;46188;52.324;8.032;2023-06-14T09:20:45;100738.19;;;22.04;42.22
60345;BME280;46188;52.324;8.032;2023-06-14T09:23:12;100739.63;;;22.16;42.51
60345;BME280;46188;52.324;8.032;2023-06-14T09:25:45;100747.97;;;22.35;42.50
60345;BME280;46188;52.324;8.032;2023-06-14T09:28:11;100736.59;;;22.54;42.11
60345;BME280;46188;52.324;8.032;2023-06-14T09:30:39;100742.41;;;22.41;42.14
60345;BME280;46188;52.324;8.032;2023-06-14T09:33:04;100748.78;;;22.37;42.40
60345;BME280;46188;52.324;8.032;2023-06-14T09:35:34;100742.25;;;22.71;42.11
60345;BME280;46188;52.324;8.032;2023-06-14T09:37:59;100747.84;;;22.90;41.60
60345;BME280;46188;52.324;8.032;2023-06-14T09:40:25;100747.63;;;22.71;40.84
60345;BME280;46188;52.324;8.032;2023-06-14T09:42:51;100740.78;;;22.62;40.46
60345;BME280;46188;52.324;8.032;2023-06-14T09:45:17;100751.75;;;22.56;41.38
60345;BME280;46188;52.324;8.032;2023-06-14T09:47:49;100747.09;;;22.61;41.25
60345;BME280;46188;52.324;8.032;2023-06-14T09:50:14;100738.72;;;22.96;41.26
60345;BME280;46188;52.324;8.032;2023-06-14T09:52:40;100747.13;;;22.85;40.97
60345;BME280;46188;52.324;8.032;2023-06-14T09:55:12;100741.97;;;22.54;40.93
60345;BME280;46188;52.324;8.032;2023-06-14T09:57:40;100740.63;;;22.92;41.34
60345;BME280;46188;52.324;8.032;2023-06-14T10:00:07;100745.47;;;23.08;40.58
60345;BME280;46188;52.324;8.032;2023-06-14T10:02:37;100739.47;;;23.25;40.98
60345;BME280;46188;52.324;8.032;2023-06-14T10:05:05;100742.38;;;23.66;40.37
60345;BME280;46188;52.324;8.032;2023-06-14T10:07:35;100753.50;;;23.80;40.21
60345;BME280;46188;52.324;8.032;2023-06-14T10:10:04;100749.06;;;23.55;40.21
60345;BME280;46188;52.324;8.032;2023-06-14T10:12:30;100742.44;;;23.64;40.29
60345;BME280;46188;52.324;8.032;2023-06-14T10:14:56;100744.59;;;23.78;40.56
60345;BME280;46188;52.324;8.032;2023-06-14T10:17:49;100742.72;;;23.80;38.87
60345;BME280;46188;52.324;8.032;2023-06-14T10:20:26;100735.19;;;23.43;39.97
60345;BME280;46188;52.324;8.032;2023-06-14T10:23:01;100739.94;;;23.59;39.89
60345;BME280;46188;52.324;8.032;2023-06-14T10:25:31;100739.88;;;23.85;40.44
60345;BME280;46188;52.324;8.032;2023-06-14T10:30:36;100738.56;;;23.95;40.25
60345;BME280;46188;52.324;8.032;2023-06-14T10:33:06;100735.44;;;24.06;39.88
60345;BME280;46188;52.324;8.032;2023-06-14T10:35:32;100739.44;;;24.40;39.38
60345;BME280;46188;52.324;8.032;2023-06-14T10:38:11;100739.38;;;24.19;39.59
60345;BME280;46188;52.324;8.032;2023-06-14T10:40:38;100735.63;;;24.23;39.86
60345;BME280;46188;52.324;8.032;2023-06-14T10:43:21;100744.47;;;24.05;38.81
60345;BME280;46188;52.324;8.032;2023-06-14T10:48:41;100731.97;;;24.24;38.65
60345;BME280;46188;52.324;8.032;2023-06-14T10:51:15;100727.34;;;24.28;38.54
60345;BME280;46188;52.324;8.032;2023-06-14T10:53:42;100733.53;;;24.08;38.28
60345;BME280;46188;52.324;8.032;2023-06-14T10:56:07;100731.13;;;24.02;38.16
60345;BME280;46188;52.324;8.032;2023-06-14T10:58:33;100731.25;;;23.99;38.16
60345;BME280;46188;52.324;8.032;2023-06-14T11:00:58;100738.63;;;23.93;37.97
60345;BME280;46188;52.324;8.032;2023-06-14T11:03:50;100741.50;;;24.11;38.57
60345;BME280;46188;52.324;8.032;2023-06-14T11:06:21;100736.63;;;24.21;37.63
60345;BME280;46188;52.324;8.032;2023-06-14T11:11:31;100732.88;;;24.25;37.07
60345;BME280;46188;52.324;8.032;2023-06-14T11:13:59;100725.91;;;24.19;36.99
60345;BME280;46188;52.324;8.032;2023-06-14T11:16:26;100719.41;;;24.45;37.20
60345;BME280;46188;52.324;8.032;2023-06-14T11:18:53;100706.59;;;24.73;37.20
60345;BME280;46188;52.324;8.032;2023-06-14T11:21:18;100714.88;;;24.68;36.21
60345;BME280;46188;52.324;8.032;2023-06-14T11:23:53;100709.38;;;24.71;36.23
60345;BME280;46188;52.324;8.032;2023-06-14T11:26:30;100711.16;;;24.71;36.76
60345;BME280;46188;52.324;8.032;2023-06-14T11:28:59;100717.59;;;24.68;36.13
60345;BME280;46188;52.324;8.032;2023-06-14T11:31:26;100709.03;;;24.58;36.07
60345;BME280;46188;52.324;8.032;2023-06-14T11:33:53;100716.50;;;24.72;36.63
60345;BME280;46188;52.324;8.032;2023-06-14T11:36:19;100703.75;;;24.76;36.00
60345;BME280;46188;52.324;8.032;2023-06-14T11:38:44;100708.09;;;24.37;35.67
60345;BME280;46188;52.324;8.032;2023-06-14T11:41:10;100699.25;;;24.34;36.43
60345;BME280;46188;52.324;8.032;2023-06-14T11:43:35;100690.88;;;24.41;36.11
60345;BME280;46188;52.324;8.032;2023-06-14T11:46:01;100695.25;;;24.85;35.66
60345;BME280;46188;52.324;8.032;2023-06-14T11:48:37;100693.81;;;24.97;34.91
60345;BME280;46188;52.324;8.032;2023-06-14T11:51:02;100696.19;;;24.84;34.45
60345;BME280;46188;52.324;8.032;2023-06-14T11:53:28;100708.34;;;24.74;35.11
60345;BME280;46188;52.324;8.032;2023-06-14T11:55:53;100700.19;;;24.75;35.21
60345;BME280;46188;52.324;8.032;2023-06-14T11:58:18;100695.31;;;24.83;34.87
60345;BME280;46188;52.324;8.032;2023-06-14T12:00:44;100691.13;;;24.97;34.92
60345;BME280;46188;52.324;8.032;2023-06-14T12:03:09;100679.13;;;25.23;35.41
60345;BME280;46188;52.324;8.032;2023-06-14T12:05:35;100689.78;;;25.26;35.18
60345;BME280;46188;52.324;8.032;2023-06-14T12:08:02;100682.75;;;25.42;34.86
60345;BME280;46188;52.324;8.032;2023-06-14T12:10:28;100679.66;;;25.69;35.31
60345;BME280;46188;52.324;8.032;2023-06-14T12:12:57;100684.84;;;25.55;34.60
60345;BME280;46188;52.324;8.032;2023-06-14T12:15:24;100684.06;;;25.53;34.34
60345;BME280;46188;52.324;8.032;2023-06-14T12:17:49;100680.06;;;25.22;34.71
60345;BME280;46188;52.324;8.032;2023-06-14T12:20:15;100685.88;;;25.33;35.21
60345;BME280;46188;52.324;8.032;2023-06-14T12:22:51;100690.13;;;25.39;35.06
60345;BME280;46188;52.324;8.032;2023-06-14T12:27:58;100686.53;;;25.38;35.03
60345;BME280;46188;52.324;8.032;2023-06-14T12:30:23;100685.00;;;25.33;35.08
60345;BME280;46188;52.324;8.032;2023-06-14T12:32:48;100684.34;;;25.47;35.22
60345;BME280;46188;52.324;8.032;2023-06-14T12:35:14;100673.84;;;25.59;34.97
60345;BME280;46188;52.324;8.032;2023-06-14T12:37:40;100686.53;;;25.95;34.91
60345;BME280;46188;52.324;8.032;2023-06-14T12:40:05;100674.38;;;25.49;34.86
60345;BME280;46188;52.324;8.032;2023-06-14T12:42:32;100682.91;;;25.39;34.82
60345;BME280;46188;52.324;8.032;2023-06-14T12:44:59;100682.22;;;25.53;35.31
60345;BME280;46188;52.324;8.032;2023-06-14T12:47:24;100679.59;;;25.52;35.00
60345;BME280;46188;52.324;8.032;2023-06-14T12:49:49;100684.16;;;25.32;35.34
60345;BME280;46188;52.324;8.032;2023-06-14T12:52:15;100683.38;;;25.67;35.60
60345;BME280;46188;52.324;8.032;2023-06-14T12:54:40;100680.31;;;25.74;35.58
60345;BME280;46188;52.324;8.032;2023-06-14T12:57:06;100682.22;;;25.53;35.41
60345;BME280;46188;52.324;8.032;2023-06-14T12:59:32;100680.09;;;25.60;36.06
60345;BME280;46188;52.324;8.032;2023-06-14T13:01:59;100683.69;;;25.60;36.01
60345;BME280;46188;52.324;8.032;2023-06-14T13:04:24;100684.94;;;25.53;35.76